createdAt,value
2022-11-17T00:01:55.037Z,4.66
2022-11-17T00:04:22.104Z,4.67
2022-11-17T00:06:48.619Z,4.64
2022-11-17T00:09:17.646Z,4.67
2022-11-17T00:12:04.116Z,4.66
2022-11-17T00:14:33.548Z,4.68
2022-11-17T00:17:05.846Z,4.72
2022-11-17T00:19:51.243Z,4.73
2022-11-17T00:22:18.017Z,4.70
2022-11-17T00:24:44.674Z,4.64
2022-11-17T00:27:11.606Z,4.66
2022-11-17T00:29:39.399Z,4.69
2022-11-17T00:32:29.967Z,4.69
2022-11-17T00:34:56.517Z,4.63
2022-11-17T00:37:23.631Z,4.62
2022-11-17T00:39:50.164Z,4.65
2022-11-17T00:42:16.667Z,4.61
2022-11-17T00:44:43.158Z,4.66
2022-11-17T00:47:10.976Z,4.56
2022-11-17T00:49:37.469Z,4.61
2022-11-17T00:52:04.243Z,4.60
2022-11-17T00:54:30.771Z,4.64
2022-11-17T00:56:57.344Z,4.60
2022-11-17T00:59:23.960Z,4.60
2022-11-17T01:01:50.554Z,4.60
2022-11-17T01:04:17.140Z,4.59
2022-11-17T01:06:48.588Z,4.54
2022-11-17T01:09:21.120Z,4.55
2022-11-17T01:11:49.804Z,4.60
2022-11-17T01:14:20.461Z,4.62
2022-11-17T01:16:47.358Z,4.57
2022-11-17T01:19:15.198Z,4.57
2022-11-17T01:21:41.923Z,4.55
2022-11-17T01:24:11.386Z,4.57
2022-11-17T01:26:39.395Z,4.54
2022-11-17T01:29:07.216Z,4.54
2022-11-17T01:31:37.552Z,4.55
2022-11-17T01:34:04.700Z,4.54
2022-11-17T01:36:56.112Z,4.54
2022-11-17T01:39:27.388Z,4.55
2022-11-17T01:41:55.227Z,4.54
2022-11-17T01:44:54.718Z,4.51
2022-11-17T01:47:33.205Z,4.50
2022-11-17T01:50:06.174Z,4.54
2022-11-17T01:52:35.054Z,4.56
2022-11-17T01:55:03.492Z,4.52
2022-11-17T01:57:35.609Z,4.54
2022-11-17T02:00:07.795Z,4.48
2022-11-17T02:02:38.342Z,4.48
2022-11-17T02:05:14.204Z,4.47
2022-11-17T02:07:43.144Z,4.50
2022-11-17T02:10:10.115Z,4.48
2022-11-17T02:12:37.094Z,4.45
2022-11-17T02:15:05.599Z,4.43
2022-11-17T02:17:38.140Z,4.44
2022-11-17T02:20:36.967Z,4.47
2022-11-17T02:23:32.162Z,4.48
2022-11-17T02:26:17.517Z,4.43
2022-11-17T02:29:09.664Z,4.41
2022-11-17T02:31:38.912Z,4.43
2022-11-17T02:34:34.464Z,4.40
2022-11-17T02:37:20.764Z,4.35
2022-11-17T02:39:50.438Z,4.38
2022-11-17T02:42:45.989Z,4.33
2022-11-17T02:45:28.406Z,4.33
2022-11-17T02:47:58.472Z,4.30
2022-11-17T02:50:28.580Z,4.26
2022-11-17T02:52:56.377Z,4.32
2022-11-17T02:55:22.902Z,4.28
2022-11-17T02:57:49.857Z,4.28
2022-11-17T03:00:18.845Z,4.26
2022-11-17T03:03:16.378Z,4.27
2022-11-17T03:06:11.382Z,4.25
2022-11-17T03:09:16.168Z,4.25
2022-11-17T03:11:52.693Z,4.26
2022-11-17T03:14:37.149Z,4.25
2022-11-17T03:17:18.624Z,4.22
2022-11-17T03:19:54.758Z,4.19
2022-11-17T03:22:32.829Z,4.18
2022-11-17T03:25:05.157Z,4.21
2022-11-17T03:27:40.273Z,4.16
2022-11-17T03:30:09.116Z,4.12
2022-11-17T03:32:38.939Z,4.08
2022-11-17T03:35:10.146Z,4.09
2022-11-17T03:37:42.078Z,4.07
2022-11-17T03:40:11.402Z,4.09
2022-11-17T03:42:42.241Z,4.06
2022-11-17T03:45:36.974Z,4.06
2022-11-17T03:48:20.393Z,4.04
2022-11-17T03:51:06.572Z,4.01
2022-11-17T03:53:35.578Z,3.97
2022-11-17T03:56:02.255Z,3.97
2022-11-17T03:58:33.413Z,3.93
2022-11-17T04:01:03.413Z,3.95
2022-11-17T04:03:40.034Z,3.98
2022-11-17T04:06:06.776Z,3.94
2022-11-17T04:08:33.265Z,3.91
2022-11-17T04:11:18.447Z,3.94
2022-11-17T04:14:03.582Z,3.89
2022-11-17T04:16:30.144Z,3.87
2022-11-17T04:18:58.869Z,3.88
2022-11-17T04:21:26.012Z,3.84
2022-11-17T04:23:52.596Z,3.83
2022-11-17T04:26:37.726Z,3.86
2022-11-17T04:29:07.044Z,3.85
2022-11-17T04:31:33.907Z,3.83
2022-11-17T04:34:05.936Z,3.81
2022-11-17T04:36:40.768Z,3.82
2022-11-17T04:39:07.309Z,3.82
2022-11-17T04:41:53.822Z,3.83
2022-11-17T04:44:23.416Z,3.78
2022-11-17T04:46:50.089Z,3.81
2022-11-17T04:49:18.416Z,3.79
2022-11-17T04:51:45.490Z,3.79
2022-11-17T04:54:14.176Z,3.74
2022-11-17T04:56:41.240Z,3.76
2022-11-17T04:59:08.328Z,3.73
2022-11-17T05:01:35.693Z,3.69
2022-11-17T05:04:06.944Z,3.71
2022-11-17T05:06:35.285Z,3.70
2022-11-17T05:09:06.423Z,3.67
2022-11-17T05:11:51.501Z,3.69
2022-11-17T05:14:20.796Z,3.70
2022-11-17T05:17:10.028Z,3.69
2022-11-17T05:19:42.575Z,3.67
2022-11-17T05:22:29.333Z,3.62
2022-11-17T05:24:56.201Z,3.58
2022-11-17T05:27:24.317Z,3.64
2022-11-17T05:29:51.636Z,3.64
2022-11-17T05:32:18.681Z,3.56
2022-11-17T05:34:45.582Z,3.57
2022-11-17T05:37:12.374Z,3.62
2022-11-17T05:39:38.915Z,3.58
2022-11-17T05:42:05.791Z,3.56
2022-11-17T05:44:32.331Z,3.62
2022-11-17T05:46:59.351Z,3.58
2022-11-17T05:49:25.849Z,3.55
2022-11-17T05:51:53.105Z,3.59
2022-11-17T05:54:20.308Z,3.54
2022-11-17T05:56:53.383Z,3.53
2022-11-17T05:59:46.932Z,3.51
2022-11-17T06:02:21.475Z,3.47
2022-11-17T06:04:50.096Z,3.47
2022-11-17T06:07:18.031Z,3.46
2022-11-17T06:09:46.084Z,3.43
2022-11-17T06:12:12.708Z,3.43
2022-11-17T06:14:42.558Z,3.43
2022-11-17T06:17:22.852Z,3.41
2022-11-17T06:19:55.490Z,3.43
2022-11-17T06:22:22.355Z,3.40
2022-11-17T06:24:48.954Z,3.36
2022-11-17T06:27:17.240Z,3.40
2022-11-17T06:29:45.425Z,3.43
2022-11-17T06:32:14.331Z,3.40
2022-11-17T06:34:42.682Z,3.40
2022-11-17T06:37:09.275Z,3.39
2022-11-17T06:39:35.822Z,3.38
2022-11-17T06:42:02.396Z,3.40
2022-11-17T06:44:28.932Z,3.39
2022-11-17T06:46:55.431Z,3.35
2022-11-17T06:49:22.030Z,3.42
2022-11-17T06:51:48.592Z,3.36
2022-11-17T06:54:15.161Z,3.35
2022-11-17T06:56:42.228Z,3.34
2022-11-17T06:59:08.759Z,3.39
2022-11-17T07:01:36.526Z,3.36
2022-11-17T07:04:03.372Z,3.38
2022-11-17T07:06:30.000Z,3.41
2022-11-17T07:08:56.523Z,3.33
2022-11-17T07:11:23.065Z,3.34
2022-11-17T07:13:49.666Z,3.35
2022-11-17T07:16:23.505Z,3.29
2022-11-17T07:18:51.048Z,3.31
2022-11-17T07:21:18.138Z,3.32
2022-11-17T07:23:45.894Z,3.30
2022-11-17T07:26:12.933Z,3.29
2022-11-17T07:28:39.601Z,3.27
2022-11-17T07:31:07.914Z,3.32
2022-11-17T07:33:34.817Z,3.31
2022-11-17T07:36:07.027Z,3.32
2022-11-17T07:38:35.453Z,3.32
2022-11-17T07:41:04.015Z,3.34
2022-11-17T07:43:30.787Z,3.32
2022-11-17T07:45:57.429Z,3.32
2022-11-17T07:48:24.071Z,3.32
2022-11-17T07:50:50.835Z,3.29
2022-11-17T07:53:17.388Z,3.29
2022-11-17T07:55:43.952Z,3.34
2022-11-17T07:58:10.489Z,3.29
2022-11-17T08:00:37.192Z,3.30
2022-11-17T08:03:04.838Z,3.31
2022-11-17T08:05:39.944Z,3.35
2022-11-17T08:08:09.999Z,3.30
2022-11-17T08:10:37.091Z,3.31
2022-11-17T08:13:03.747Z,3.34
2022-11-17T08:15:31.234Z,3.31
2022-11-17T08:18:00.162Z,3.27
2022-11-17T08:20:29.305Z,3.28
2022-11-17T08:22:56.542Z,3.28
2022-11-17T08:29:09.808Z,3.31
2022-11-17T08:31:36.501Z,3.29
2022-11-17T08:34:03.015Z,3.31
2022-11-17T08:36:29.609Z,3.38
2022-11-17T08:38:56.109Z,3.32
2022-11-17T08:41:22.732Z,3.36
2022-11-17T08:43:50.777Z,3.36
2022-11-17T08:46:17.309Z,3.35
2022-11-17T08:48:43.851Z,3.30
2022-11-17T08:51:13.944Z,3.29
2022-11-17T08:53:40.627Z,3.37
2022-11-17T08:56:08.613Z,3.38
2022-11-17T08:58:43.311Z,3.38
2022-11-17T09:01:11.401Z,3.37
2022-11-17T09:03:38.050Z,3.38
2022-11-17T09:06:05.835Z,3.37
2022-11-17T09:08:47.924Z,3.37
2022-11-17T09:11:16.721Z,3.38
2022-11-17T09:13:45.662Z,3.41
2022-11-17T09:16:13.712Z,3.35
2022-11-17T09:18:41.147Z,3.42
2022-11-17T09:21:10.615Z,3.41
2022-11-17T09:23:37.588Z,3.41
2022-11-17T09:26:10.560Z,3.42
2022-11-17T09:28:37.586Z,3.45
2022-11-17T09:31:09.365Z,3.47
2022-11-17T09:33:36.577Z,3.48
2022-11-17T09:36:10.135Z,3.47
2022-11-17T09:38:38.091Z,3.48
2022-11-17T09:41:21.365Z,3.52
2022-11-17T09:44:08.147Z,3.52
2022-11-17T09:47:07.005Z,3.53
2022-11-17T09:49:56.982Z,3.57
2022-11-17T09:52:49.122Z,3.57
2022-11-17T09:55:15.682Z,3.57
2022-11-17T09:57:45.526Z,3.59
2022-11-17T10:00:20.195Z,3.60
2022-11-17T10:02:47.814Z,3.63
2022-11-17T10:05:16.462Z,3.65
2022-11-17T10:07:50.498Z,3.67
2022-11-17T10:10:22.637Z,3.70
2022-11-17T10:12:56.251Z,3.69
2022-11-17T10:15:41.192Z,3.69
2022-11-17T10:18:14.277Z,3.68
2022-11-17T10:20:42.483Z,3.72
2022-11-17T10:23:20.117Z,3.72
2022-11-17T10:25:48.538Z,3.72
2022-11-17T10:28:28.830Z,3.72
2022-11-17T10:31:10.955Z,3.73
2022-11-17T10:33:39.508Z,3.72
2022-11-17T10:36:28.876Z,3.75
2022-11-17T10:38:57.574Z,3.70
2022-11-17T10:41:28.916Z,3.71
2022-11-17T10:44:18.210Z,3.69
2022-11-17T10:46:58.935Z,3.71
2022-11-17T10:49:33.232Z,3.68
2022-11-17T10:52:08.821Z,3.62
2022-11-17T10:54:35.393Z,3.64
2022-11-17T10:57:05.268Z,3.63
2022-11-17T10:59:41.360Z,3.61
2022-11-17T11:02:19.999Z,3.59
2022-11-17T11:04:46.532Z,3.61
2022-11-17T11:07:23.846Z,3.61
2022-11-17T11:09:56.212Z,3.58
2022-11-17T11:12:33.499Z,3.58
2022-11-17T11:15:01.403Z,3.58
2022-11-17T11:17:29.760Z,3.59
2022-11-17T11:19:56.529Z,3.63
2022-11-17T11:22:23.068Z,3.62
2022-11-17T11:25:11.146Z,3.61
2022-11-17T11:27:46.947Z,3.60
2022-11-17T11:30:16.821Z,3.59
2022-11-17T11:33:17.893Z,3.59
2022-11-17T11:36:03.282Z,3.58
2022-11-17T11:38:45.118Z,3.55
2022-11-17T11:41:30.334Z,3.54
2022-11-17T11:44:14.017Z,3.52
2022-11-17T11:47:05.005Z,3.49
2022-11-17T11:49:40.586Z,3.51
2022-11-17T11:52:16.187Z,3.54
2022-11-17T11:54:51.205Z,3.50
2022-11-17T11:57:24.053Z,3.53
2022-11-17T12:00:04.486Z,3.58
2022-11-17T12:02:45.382Z,3.58
2022-11-17T12:05:23.981Z,3.55
2022-11-17T12:08:25.565Z,3.53
2022-11-17T12:11:00.651Z,3.60
2022-11-17T12:13:27.520Z,3.60
2022-11-17T12:16:17.373Z,3.61
2022-11-17T12:18:43.930Z,3.57
2022-11-17T12:21:13.816Z,3.62
2022-11-17T12:23:40.278Z,3.56
2022-11-17T12:26:07.363Z,3.57
2022-11-17T12:28:41.427Z,3.60
2022-11-17T12:31:32.070Z,3.60
2022-11-17T12:34:01.535Z,3.59
2022-11-17T12:36:31.582Z,3.59
2022-11-17T12:39:03.724Z,3.56
2022-11-17T12:41:48.301Z,3.57
2022-11-17T12:44:43.587Z,3.54
2022-11-17T12:47:17.300Z,3.54
2022-11-17T12:50:24.095Z,3.52
2022-11-17T12:53:05.640Z,3.53
2022-11-17T12:55:34.902Z,3.53
2022-11-17T12:58:18.948Z,3.53
2022-11-17T13:01:02.174Z,3.53
2022-11-17T13:03:43.008Z,3.53
2022-11-17T13:09:07.687Z,3.51
2022-11-17T13:11:34.686Z,3.53
2022-11-17T13:14:16.115Z,3.54
2022-11-17T13:16:50.588Z,3.59
2022-11-17T13:19:35.354Z,3.54
2022-11-17T13:22:14.941Z,3.55
2022-11-17T13:24:44.766Z,3.62
2022-11-17T13:27:18.697Z,3.60
2022-11-17T13:29:45.409Z,3.58
2022-11-17T13:32:14.973Z,3.57
2022-11-17T13:34:53.787Z,3.57
2022-11-17T13:37:27.251Z,3.52
2022-11-17T13:39:57.608Z,3.54
2022-11-17T13:42:27.046Z,3.53
2022-11-17T13:44:56.149Z,3.54
2022-11-17T13:47:37.744Z,3.49
2022-11-17T13:50:26.137Z,3.49
2022-11-17T13:53:12.471Z,3.51
2022-11-17T13:55:48.387Z,3.49
2022-11-17T13:58:26.893Z,3.50
2022-11-17T14:00:58.661Z,3.47
2022-11-17T14:03:35.835Z,3.43
2022-11-17T14:06:04.878Z,3.41
2022-11-17T14:08:32.949Z,3.47
2022-11-17T14:11:14.818Z,3.40
2022-11-17T14:14:01.015Z,3.43
2022-11-17T14:16:28.981Z,3.39
2022-11-17T14:19:21.089Z,3.39
2022-11-17T14:22:31.042Z,3.37
2022-11-17T14:24:58.437Z,3.38
2022-11-17T14:27:27.768Z,3.37
2022-11-17T14:29:54.301Z,3.36
2022-11-17T14:32:21.403Z,3.35
2022-11-17T14:34:47.945Z,3.36
2022-11-17T14:37:14.600Z,3.34
2022-11-17T14:39:41.116Z,3.32
2022-11-17T14:42:09.635Z,3.29
2022-11-17T14:44:36.151Z,3.28
2022-11-17T14:47:03.327Z,3.26
2022-11-17T14:49:29.907Z,3.19
2022-11-17T14:51:59.103Z,3.20
2022-11-17T14:54:26.330Z,3.19
2022-11-17T14:56:52.843Z,3.20
2022-11-17T14:59:19.583Z,3.21
2022-11-17T15:01:46.135Z,3.15
2022-11-17T15:04:35.114Z,3.13
2022-11-17T15:07:01.304Z,3.13
2022-11-17T15:09:28.039Z,3.12
2022-11-17T15:11:54.529Z,3.13
2022-11-17T15:14:21.280Z,3.09
2022-11-17T15:16:47.778Z,3.07
2022-11-17T15:19:14.427Z,3.08
2022-11-17T15:21:41.036Z,3.04
2022-11-17T15:24:09.241Z,3.01
2022-11-17T15:26:35.845Z,3.02
2022-11-17T15:29:02.514Z,3.00
2022-11-17T15:31:29.176Z,2.98
2022-11-17T15:33:55.964Z,3.02
2022-11-17T15:36:23.134Z,3.01
2022-11-17T15:38:50.066Z,2.99
2022-11-17T15:41:17.076Z,2.99
2022-11-17T15:43:44.747Z,2.97
2022-11-17T15:46:13.875Z,2.98
2022-11-17T15:48:43.226Z,2.94
2022-11-17T15:51:21.715Z,2.95
2022-11-17T15:53:49.892Z,2.98
2022-11-17T15:56:28.219Z,2.95
2022-11-17T15:59:01.652Z,2.96
2022-11-17T16:01:30.207Z,2.97
2022-11-17T16:04:05.695Z,2.95
2022-11-17T16:06:34.464Z,2.92
2022-11-17T16:09:01.159Z,2.93
2022-11-17T16:11:28.056Z,2.90
2022-11-17T16:13:56.150Z,2.93
2022-11-17T16:16:25.197Z,2.90
2022-11-17T16:18:51.797Z,2.90
2022-11-17T16:21:18.373Z,2.90
2022-11-17T16:23:56.071Z,2.90
2022-11-17T16:26:25.152Z,2.84
2022-11-17T16:29:04.288Z,2.87
2022-11-17T16:31:33.002Z,2.96
2022-11-17T16:34:05.273Z,2.91
2022-11-17T16:36:36.913Z,2.90
2022-11-17T16:39:05.623Z,3.08
2022-11-17T16:41:38.257Z,3.13
2022-11-17T16:44:11.785Z,3.13
2022-11-17T16:46:41.268Z,3.13
2022-11-17T16:49:11.513Z,3.18
2022-11-17T16:51:38.729Z,3.15
2022-11-17T16:54:08.244Z,3.20
2022-11-17T16:56:34.817Z,3.20
2022-11-17T16:59:01.372Z,3.18
2022-11-17T17:01:30.531Z,3.21
2022-11-17T17:03:58.906Z,3.19
2022-11-17T17:06:26.141Z,3.23
2022-11-17T17:09:12.683Z,3.24
2022-11-17T17:11:39.688Z,3.16
2022-11-17T17:14:08.934Z,3.15
2022-11-17T17:16:37.122Z,3.21
2022-11-17T17:19:05.900Z,3.19
2022-11-17T17:21:33.142Z,3.20
2022-11-17T17:23:59.931Z,3.18
2022-11-17T17:26:29.132Z,3.20
2022-11-17T17:28:57.966Z,3.12
2022-11-17T17:31:25.943Z,3.20
2022-11-17T17:33:52.961Z,3.17
2022-11-17T17:36:24.800Z,3.16
2022-11-17T17:38:56.100Z,3.16
2022-11-17T17:41:29.296Z,3.13
2022-11-17T17:43:58.578Z,3.15
2022-11-17T17:46:25.923Z,3.11
2022-11-17T17:48:52.623Z,3.15
2022-11-17T17:51:21.476Z,3.12
2022-11-17T17:53:50.183Z,3.18
2022-11-17T17:56:19.096Z,3.24
2022-11-17T17:58:46.905Z,3.18
2022-11-17T18:01:17.951Z,3.13
2022-11-17T18:03:47.965Z,3.15
2022-11-17T18:06:19.677Z,3.12
2022-11-17T18:08:47.028Z,3.12
2022-11-17T18:11:17.018Z,3.13
2022-11-17T18:13:45.775Z,3.13
2022-11-17T18:16:18.365Z,3.17
2022-11-17T18:18:46.187Z,3.17
2022-11-17T18:21:18.526Z,3.19
2022-11-17T18:23:45.773Z,3.16
2022-11-17T18:26:19.678Z,3.18
2022-11-17T18:28:54.672Z,3.17
2022-11-17T18:31:22.550Z,3.16
2022-11-17T18:34:13.434Z,3.19
2022-11-17T18:36:40.007Z,3.16
2022-11-17T18:39:06.677Z,3.16
2022-11-17T18:41:34.105Z,3.11
2022-11-17T18:44:01.465Z,3.16
2022-11-17T18:46:30.590Z,3.20
2022-11-17T18:48:58.332Z,3.17
2022-11-17T18:51:29.587Z,3.13
2022-11-17T18:53:58.225Z,3.11
2022-11-17T18:56:27.036Z,3.10
2022-11-17T18:58:53.634Z,3.12
2022-11-17T19:01:22.938Z,3.11
2022-11-17T19:03:54.171Z,3.06
2022-11-17T19:06:22.952Z,3.07
2022-11-17T19:08:50.081Z,3.08
2022-11-17T19:11:20.061Z,3.10
2022-11-17T19:13:47.198Z,3.10
2022-11-17T19:16:25.160Z,3.10
2022-11-17T19:18:54.027Z,3.06
2022-11-17T19:21:26.737Z,3.06
2022-11-17T19:23:56.763Z,3.02
2022-11-17T19:26:29.069Z,3.02
2022-11-17T19:28:57.591Z,3.01
2022-11-17T19:31:25.442Z,3.00
2022-11-17T19:33:55.630Z,2.99
2022-11-17T19:36:27.862Z,3.03
2022-11-17T19:38:56.571Z,3.03
2022-11-17T19:41:26.173Z,3.07
2022-11-17T19:43:54.250Z,3.01
2022-11-17T19:46:26.465Z,3.04
2022-11-17T19:48:53.415Z,3.00
2022-11-17T19:51:25.631Z,3.00
2022-11-17T19:53:54.532Z,2.90
2022-11-17T19:56:22.834Z,2.95
2022-11-17T19:58:50.584Z,2.92
2022-11-17T20:01:23.212Z,2.89
2022-11-17T20:03:52.692Z,2.85
2022-11-17T20:06:22.201Z,2.84
2022-11-17T20:08:49.936Z,2.86
2022-11-17T20:11:27.819Z,2.79
2022-11-17T20:13:55.964Z,2.75
2022-11-17T20:16:25.434Z,2.79
2022-11-17T20:18:59.514Z,2.80
2022-11-17T20:21:27.942Z,2.77
2022-11-17T20:23:55.443Z,2.71
2022-11-17T20:26:24.730Z,2.66
2022-11-17T20:28:52.600Z,2.71
2022-11-17T20:31:24.893Z,2.68
2022-11-17T20:33:53.887Z,2.62
2022-11-17T20:36:23.518Z,2.55
2022-11-17T20:38:55.117Z,2.58
2022-11-17T20:41:25.756Z,2.57
2022-11-17T20:43:54.198Z,2.50
2022-11-17T20:46:21.875Z,2.47
2022-11-17T20:48:48.868Z,2.50
2022-11-17T20:51:18.411Z,2.53
2022-11-17T20:53:45.216Z,2.49
2022-11-17T20:56:13.236Z,2.47
2022-11-17T20:58:40.191Z,2.45
2022-11-17T21:01:15.140Z,2.36
2022-11-17T21:03:42.482Z,2.38
2022-11-17T21:06:09.455Z,2.42
2022-11-17T21:08:38.076Z,2.40
2022-11-17T21:11:07.957Z,2.29
2022-11-17T21:13:36.425Z,2.30
2022-11-17T21:16:14.534Z,2.28
2022-11-17T21:18:48.387Z,2.31
2022-11-17T21:21:15.893Z,2.28
2022-11-17T21:23:43.943Z,2.25
2022-11-17T21:26:17.159Z,2.30
2022-11-17T21:28:43.931Z,2.29
2022-11-17T21:31:15.624Z,2.25
2022-11-17T21:33:42.872Z,2.19
2022-11-17T21:36:17.368Z,2.20
2022-11-17T21:38:45.245Z,2.21
2022-11-17T21:41:14.185Z,2.14
2022-11-17T21:43:42.359Z,2.14
2022-11-17T21:46:11.686Z,2.07
2022-11-17T21:48:38.364Z,2.04
2022-11-17T21:51:06.792Z,2.09
2022-11-17T21:53:34.008Z,2.08
2022-11-17T21:56:05.578Z,2.05
2022-11-17T21:58:32.797Z,2.08
2022-11-17T22:01:05.252Z,2.10
2022-11-17T22:03:31.844Z,2.07
2022-11-17T22:06:09.168Z,2.10
2022-11-17T22:08:38.432Z,2.07
2022-11-17T22:11:16.305Z,1.99
2022-11-17T22:13:42.976Z,2.05
2022-11-17T22:16:12.606Z,2.02
2022-11-17T22:18:39.940Z,2.01
2022-11-17T22:21:07.676Z,2.07
2022-11-17T22:23:34.640Z,2.02
2022-11-17T22:26:04.941Z,2.02
2022-11-17T22:28:31.747Z,2.02
2022-11-17T22:30:58.525Z,1.98
2022-11-17T22:33:25.074Z,2.00
2022-11-17T22:35:51.715Z,1.97
2022-11-17T22:38:18.322Z,2.01
2022-11-17T22:40:44.897Z,1.98
2022-11-17T22:43:14.919Z,1.97
2022-11-17T22:45:41.718Z,1.99
2022-11-17T22:48:08.987Z,2.05
2022-11-17T22:50:36.004Z,2.00
2022-11-17T22:53:02.801Z,1.96
2022-11-17T22:55:29.457Z,1.95
2022-11-17T22:57:55.986Z,1.95
2022-11-17T23:00:22.950Z,1.97
2022-11-17T23:02:49.593Z,2.05
2022-11-17T23:05:16.761Z,2.05
2022-11-17T23:07:43.478Z,2.01
2022-11-17T23:10:10.751Z,1.96
2022-11-17T23:12:37.304Z,1.97
2022-11-17T23:15:04.565Z,1.94
2022-11-17T23:17:31.049Z,1.97
2022-11-17T23:19:57.610Z,1.99
2022-11-17T23:22:24.118Z,1.95
2022-11-17T23:24:50.637Z,1.94
2022-11-17T23:27:17.280Z,1.91
2022-11-17T23:29:43.808Z,1.88
2022-11-17T23:32:10.693Z,1.86
2022-11-17T23:34:37.286Z,1.89
2022-11-17T23:37:04.259Z,1.85
2022-11-17T23:39:30.805Z,1.88
2022-11-17T23:41:57.302Z,1.83
2022-11-17T23:44:23.848Z,1.79
2022-11-17T23:46:50.388Z,1.78
2022-11-17T23:49:17.064Z,1.78
2022-11-17T23:51:43.662Z,1.77
2022-11-17T23:54:13.839Z,1.79
2022-11-17T23:56:41.054Z,1.79
2022-11-17T23:59:08.308Z,1.79
